Terminal Aerodrome Forecast
Issued by NWS Charleston, WV

Current Version | Previous Version | Graphics & Text | Print | Product List | Glossary On
Versions: 1 2 3 4 5 6 7 8 9 10 11 12 13 14 15 16 17 18 19 20 21 22 23 24 25 26 27 28
527
FTUS41 KRLX 171457 AAB
TAFEKN
TAF AMD
KEKN 171457Z 1715/1812 25009G17KT 5SM -SHSN OVC025
     FM171900 27013G24KT P6SM OVC025
     FM180200 28006KT P6SM BKN035=

USA.gov is the U.S. government's official web portal to all federal, state and local government web resources and services.